FAUPFAKM

Guest
Details From FAUP - Upington
To FAKM - Kimberley
Flight Number -
Tags generated
Created
Modified
Stats Distance 186 nm / 345 km
Max Altitude 7,100 ft / 2,164 m
Waypoints 4
Social Downloads 1
Likes 0
Share VATSIM

Download

Looking for another format? Having issues loading an existing format? Contact us
Advertisement - Login to hide

Notes

Basic altitude profile: - Ascent Rate: 2500ft/min - Ascent Speed: 250kts - Cruise Altitude: 35000ft - Cruise Speed: 420kts - Descent Rate: 1500ft/min - Descent Speed: 250kts Options: - Use NATs: yes - Use PACOTS: yes - Use low airways: no - Use high airways: yes

Route

FAUP UPV W97F KYV FAKM

ID Type Via Altitude Latitude Longitude Leg Dist Tot Dist Heading (true) Name
O FAUP APT - 0 ft / 0 m -28.40167˚ 21.26119˚ - 0 nm - Upington
UPV VOR - 0 ft / 0 m -28.40170˚ 21.26037˚ 0 nm 0 nm 268° / 268° -
KYV VOR W97F (AWY-HI) 7,100 ft / 2,164 m -28.79995˚ 24.76037˚ 186 nm 186 nm 98° / 97° KIMBERLEY VOR-DME
O FAKM APT - 0 ft / 0 m -28.80475˚ 24.76400˚ 0 nm 186 nm 146° / 146° Kimberley

Altitude Profile

Advertisement - Login to hide

Weather


0- 5 10 15 20 25 30 35+ Temperature / ° C

Clouds and Precipitation
Forecast for 2017-12-12 12:00 UTC. Updated an hour ago

Ground ~20,000 ft ~40,000 ft Winds

FAUP

Details ICAO FAUP (UTN)
Name Upington
Region South Africa
Timezone Africa/Johannesburg (UTC+2.0)
Stats Elevation 2,791 ft / 851 m (AMSL)
Location -28.401673° 21.261191°
Runways 3
Magnetic Variation 19.779° W

METAR

FAUP 121000Z 29005KT CAVOK 28/M04 Q1013 NOSIG

Decode

TAF

TAF FAUP 112200Z 1200/1224 21005KT CAVOK TX32/1213Z TN16/1203Z

Decode

Departure Runways

ID Width Length Bearing (true) Bearing (mag) Surface Threshold Offset Overrun Length
01 150 ft / 46 m 8,008 ft / 2,441 m 349.62° 9.40° Asphalt 0 ft / 0 m 0 ft / 0 m
08 98 ft / 30 m 2,739 ft / 835 m 59.59° 79.37° Asphalt 0 ft / 0 m 0 ft / 0 m
17 197 ft / 60 m 16,091 ft / 4,905 m 153.53° 173.31° Asphalt 0 ft / 0 m 1,181 ft / 360 m
19 150 ft / 46 m 8,008 ft / 2,441 m 169.62° 189.40° Asphalt 0 ft / 0 m 0 ft / 0 m
26 98 ft / 30 m 2,739 ft / 835 m 239.59° 259.37° Asphalt 0 ft / 0 m 0 ft / 0 m
35 197 ft / 60 m 16,091 ft / 4,905 m 333.51° 353.29° Asphalt 0 ft / 0 m 1,180 ft / 360 m

FAKM

Details ICAO FAKM (KIM)
Name Kimberley
Region South Africa
Timezone Africa/Johannesburg (UTC+2.0)
Stats Elevation 3,950 ft / 1,204 m (AMSL)
Location -28.804751° 24.763997°
Runways 2
Magnetic Variation 21.455° W

METAR

FAKM 121000Z 26008KT CAVOK 30/M01 Q1012

Decode

TAF

Not found

Destination Runways

ID Width Length Bearing (true) Bearing (mag) Surface Threshold Offset Overrun Length
02 150 ft / 46 m 9,851 ft / 3,003 m 0.00° 21.46° Asphalt 0 ft / 0 m 0 ft / 0 m
10 148 ft / 45 m 8,010 ft / 2,441 m 80.28° 101.74° Asphalt 0 ft / 0 m 0 ft / 0 m
20 150 ft / 46 m 9,851 ft / 3,003 m 180.00° 201.46° Asphalt 0 ft / 0 m 0 ft / 0 m
28 148 ft / 45 m 8,010 ft / 2,441 m 260.26° 281.72° Asphalt 0 ft / 0 m 0 ft / 0 m

Popular Alternatives